Time;durP1;ratioP1;P1;durP2;ratioP2;P2;SDS_P1;SDS_P2;PMS_P1;PMS_P2;Temp;Humidity;BMP_temperature;BMP_pressure;BME280_temperature;BME280_humidity;BME280_pressure;Samples;Min_cycle;Max_cycle;Signal;HPM_P1;HPM_P2
2021/09/23 00:01:04;;;;;;;3.40;2.67;;;21.80;99.90;;;;;;5013129;28;20084;-69
2021/09/23 00:05:57;;;;;;;3.92;3.15;;;21.70;99.90;;;;;;4993956;28;20052;-69
2021/09/23 00:08:22;;;;;;;3.25;2.53;;;21.70;99.90;;;;;;4993797;28;20053;-69
2021/09/23 00:10:48;;;;;;;3.22;2.58;;;21.70;99.90;;;;;;4993173;28;20466;-69
2021/09/23 00:13:14;;;;;;;3.22;2.70;;;21.70;99.90;;;;;;4993445;28;20113;-69
2021/09/23 00:15:40;;;;;;;3.55;2.60;;;21.70;99.90;;;;;;4993118;28;20513;-69
2021/09/23 00:18:13;;;;;;;3.60;2.58;;;21.70;99.90;;;;;;4993275;28;20023;-69
2021/09/23 00:20:42;;;;;;;3.45;2.80;;;21.70;99.90;;;;;;4992989;28;20162;-69
2021/09/23 00:23:09;;;;;;;3.47;2.50;;;21.70;99.90;;;;;;4993201;28;20041;-69
2021/09/23 00:25:35;;;;;;;3.38;2.90;;;21.60;99.90;;;;;;5001241;28;20434;-69
2021/09/23 00:28:02;;;;;;;3.63;2.53;;;21.60;99.90;;;;;;5012749;28;20533;-69
2021/09/23 00:30:28;;;;;;;3.15;2.78;;;21.60;99.90;;;;;;4999331;28;20505;-69
2021/09/23 00:32:55;;;;;;;3.33;2.72;;;21.60;99.90;;;;;;4993350;28;20176;-69
2021/09/23 00:35:21;;;;;;;3.88;2.50;;;21.60;99.90;;;;;;4993007;28;20030;-69
2021/09/23 00:37:47;;;;;;;3.55;2.88;;;21.60;99.90;;;;;;4992774;28;20027;-69
2021/09/23 00:40:13;;;;;;;3.33;2.50;;;21.60;99.90;;;;;;4992843;28;20436;-69
2021/09/23 00:42:41;;;;;;;3.38;2.35;;;21.60;99.90;;;;;;4992483;28;20031;-69
2021/09/23 00:45:09;;;;;;;2.92;2.40;;;21.50;99.90;;;;;;4992697;28;20037;-69
2021/09/23 00:47:34;;;;;;;3.35;2.70;;;21.50;99.90;;;;;;4992560;28;20034;-69
2021/09/23 00:50:01;;;;;;;3.38;2.58;;;21.50;99.90;;;;;;4996378;28;20029;-69
2021/09/23 00:52:31;;;;;;;3.90;2.65;;;21.50;99.90;;;;;;5012528;28;20502;-69
2021/09/23 00:54:58;;;;;;;3.10;2.63;;;21.50;99.90;;;;;;5012053;28;20030;-69
2021/09/23 00:57:24;;;;;;;3.72;2.47;;;21.50;99.90;;;;;;5012327;28;20120;-69
2021/09/23 00:59:55;;;;;;;3.97;2.38;;;21.40;99.90;;;;;;5012025;28;20026;-69
2021/09/23 01:02:22;;;;;;;3.97;2.65;;;21.50;99.90;;;;;;5012244;28;20478;-69
2021/09/23 01:04:48;;;;;;;3.80;2.90;;;21.40;99.90;;;;;;5011878;28;20034;-69
2021/09/23 01:07:16;;;;;;;3.75;2.80;;;21.40;99.90;;;;;;5012142;28;20034;-69
2021/09/23 01:09:53;;;;;;;2.30;1.95;;;21.40;99.90;;;;;;5011717;28;20080;-69
2021/09/23 01:12:22;;;;;;;3.28;2.60;;;21.40;99.90;;;;;;5012206;28;20021;-69
2021/09/23 01:14:49;;;;;;;3.13;2.67;;;21.40;99.90;;;;;;5010783;28;20374;-68
2021/09/23 01:17:15;;;;;;;3.35;2.75;;;21.40;99.90;;;;;;5011928;28;20088;-69
2021/09/23 01:19:43;;;;;;;2.75;2.20;;;21.40;99.90;;;;;;5009135;28;20034;-69
2021/09/23 01:22:09;;;;;;;3.22;2.42;;;21.30;99.90;;;;;;4992255;28;20030;-69
2021/09/23 01:24:39;;;;;;;3.65;2.50;;;21.30;99.90;;;;;;4991823;28;20034;-69
2021/09/23 01:27:06;;;;;;;2.72;2.33;;;21.30;99.90;;;;;;4992293;28;20030;-68
2021/09/23 01:29:33;;;;;;;3.60;2.53;;;21.30;99.90;;;;;;4991930;28;20052;-68
2021/09/23 01:32:01;;;;;;;3.40;2.70;;;21.30;99.90;;;;;;4991968;28;20026;-68
2021/09/23 01:34:28;;;;;;;2.90;2.22;;;21.30;99.90;;;;;;5010869;28;20153;-68
2021/09/23 01:36:55;;;;;;;3.22;2.55;;;21.30;99.90;;;;;;5012122;28;20030;-68
2021/09/23 01:39:23;;;;;;;3.58;2.90;;;21.30;99.90;;;;;;5011746;28;20048;-68
2021/09/23 01:41:51;;;;;;;3.50;2.80;;;21.30;99.90;;;;;;5011453;28;20119;-68
2021/09/23 01:44:17;;;;;;;3.22;2.47;;;21.20;99.90;;;;;;5011663;28;20433;-68
2021/09/23 01:46:43;;;;;;;3.33;2.78;;;21.20;99.90;;;;;;5011231;28;20080;-69
2021/09/23 01:49:09;;;;;;;3.10;2.40;;;21.20;99.90;;;;;;5011674;28;20109;-69
2021/09/23 01:51:34;;;;;;;3.75;2.63;;;21.20;99.90;;;;;;4993530;28;20069;-69
2021/09/23 01:54:00;;;;;;;3.80;2.70;;;21.20;99.90;;;;;;5011726;28;20049;-69
2021/09/23 01:56:26;;;;;;;3.28;2.42;;;21.20;99.90;;;;;;5011796;28;20482;-69
2021/09/23 01:58:51;;;;;;;3.03;2.38;;;21.10;99.90;;;;;;5011204;28;20045;-69
2021/09/23 02:01:17;;;;;;;3.42;2.50;;;21.20;99.90;;;;;;5011481;28;20073;-68
2021/09/23 02:03:43;;;;;;;3.30;2.50;;;21.10;99.90;;;;;;5011247;28;20030;-68
2021/09/23 02:06:09;;;;;;;2.95;2.50;;;21.10;99.90;;;;;;5011425;28;20076;-69
2021/09/23 02:08:34;;;;;;;3.58;2.47;;;21.20;99.90;;;;;;5011369;28;20025;-69
2021/09/23 02:11:00;;;;;;;3.13;2.60;;;21.10;99.90;;;;;;5011246;28;20470;-68
2021/09/23 02:13:26;;;;;;;3.83;2.67;;;21.10;99.90;;;;;;5011960;28;20018;-68
2021/09/23 02:15:51;;;;;;;4.30;2.90;;;21.10;99.90;;;;;;5010498;28;20104;-68
2021/09/23 02:18:17;;;;;;;3.85;3.00;;;21.10;99.90;;;;;;5011388;28;20430;-68
2021/09/23 02:20:43;;;;;;;3.35;2.88;;;21.10;99.90;;;;;;5011090;28;20022;-68
2021/09/23 02:23:09;;;;;;;2.70;2.50;;;21.10;99.90;;;;;;5010552;28;20029;-68
2021/09/23 02:25:35;;;;;;;3.92;2.80;;;21.00;99.90;;;;;;5012323;28;20038;-71
2021/09/23 02:28:00;;;;;;;4.05;2.92;;;21.10;99.90;;;;;;5015066;28;20022;-70
2021/09/23 02:30:28;;;;;;;3.88;2.70;;;21.00;99.90;;;;;;5015118;28;20110;-70
2021/09/23 02:32:54;;;;;;;3.40;2.50;;;21.00;99.90;;;;;;5015066;28;20025;-70
2021/09/23 02:35:19;;;;;;;3.83;2.50;;;21.00;99.90;;;;;;5014775;28;20094;-70
2021/09/23 02:37:45;;;;;;;4.38;2.65;;;21.00;99.90;;;;;;5014580;28;20510;-70
2021/09/23 02:40:11;;;;;;;2.90;2.40;;;21.00;99.90;;;;;;5014883;28;20030;-68
2021/09/23 02:42:37;;;;;;;3.97;2.80;;;21.00;99.90;;;;;;5014571;28;20389;-70
2021/09/23 02:45:04;;;;;;;3.28;2.60;;;21.00;99.90;;;;;;5014558;28;20044;-70
2021/09/23 02:47:30;;;;;;;3.95;2.72;;;21.00;99.90;;;;;;5014351;28;20064;-70
2021/09/23 02:49:55;;;;;;;3.60;2.90;;;21.00;99.90;;;;;;5014676;28;20057;-70
2021/09/23 02:52:21;;;;;;;2.60;2.38;;;20.90;99.90;;;;;;5014511;28;20521;-68
2021/09/23 02:54:47;;;;;;;4.40;2.80;;;20.90;99.90;;;;;;5014225;28;20414;-68
2021/09/23 02:57:13;;;;;;;3.75;2.92;;;20.90;99.90;;;;;;5014372;28;20044;-68
2021/09/23 02:59:39;;;;;;;3.70;2.80;;;20.90;99.90;;;;;;5014141;28;20033;-68
2021/09/23 03:02:05;;;;;;;2.72;2.42;;;20.90;99.90;;;;;;5014098;28;20105;-68
2021/09/23 03:04:31;;;;;;;4.10;3.13;;;20.90;99.90;;;;;;5013818;28;20484;-68
2021/09/23 03:06:57;;;;;;;2.92;2.58;;;20.90;99.90;;;;;;5014539;28;20026;-69
2021/09/23 03:09:23;;;;;;;3.80;2.72;;;20.80;99.90;;;;;;5014214;28;20501;-69
2021/09/23 03:11:48;;;;;;;4.15;2.70;;;20.80;99.90;;;;;;5010060;28;20029;-69
2021/09/23 03:14:14;;;;;;;3.47;2.67;;;20.80;99.90;;;;;;4994577;28;20026;-69
2021/09/23 03:16:40;;;;;;;2.85;2.33;;;20.80;99.90;;;;;;4994279;28;20517;-69
2021/09/23 03:19:05;;;;;;;2.83;2.53;;;20.80;99.90;;;;;;4994176;28;20026;-68
2021/09/23 03:21:31;;;;;;;3.20;2.67;;;20.80;99.90;;;;;;4994207;28;20479;-68
2021/09/23 03:23:57;;;;;;;2.97;2.67;;;20.80;99.90;;;;;;4994411;28;20023;-69
2021/09/23 03:26:22;;;;;;;3.90;3.00;;;20.80;99.90;;;;;;4994513;28;20033;-69
2021/09/23 03:28:48;;;;;;;2.90;2.60;;;20.80;99.90;;;;;;4994108;28;20033;-69
2021/09/23 03:31:14;;;;;;;3.15;2.75;;;20.70;99.90;;;;;;4994190;28;20034;-69
2021/09/23 03:33:39;;;;;;;3.58;2.83;;;20.70;99.90;;;;;;4993925;28;20038;-69
2021/09/23 03:36:05;;;;;;;3.30;2.70;;;20.70;99.90;;;;;;4976537;28;20022;-69
2021/09/23 03:38:31;;;;;;;3.22;2.83;;;20.70;99.90;;;;;;4993005;28;20025;-69
2021/09/23 03:40:57;;;;;;;3.42;2.70;;;20.70;99.90;;;;;;4994005;28;20542;-69
2021/09/23 03:43:23;;;;;;;3.88;2.95;;;20.70;99.90;;;;;;4994296;28;20022;-69
2021/09/23 03:45:50;;;;;;;3.05;2.72;;;20.70;99.90;;;;;;4993644;28;20038;-69
2021/09/23 03:48:19;;;;;;;3.70;3.05;;;20.70;99.90;;;;;;4993737;28;20026;-69
2021/09/23 03:50:46;;;;;;;2.90;2.47;;;;;;;;;;4993480;28;20038;-69
2021/09/23 03:53:12;;;;;;;3.63;3.00;;;20.70;99.90;;;;;;4993721;28;20467;-68
2021/09/23 03:55:38;;;;;;;4.05;2.80;;;20.70;99.90;;;;;;4993302;28;20030;-68
2021/09/23 03:58:04;;;;;;;3.90;2.83;;;20.70;99.90;;;;;;4993615;28;20037;-69
2021/09/23 04:00:29;;;;;;;3.28;2.58;;;20.60;99.90;;;;;;4993316;28;20129;-68
2021/09/23 04:02:55;;;;;;;3.13;2.50;;;20.60;99.90;;;;;;4993767;28;20019;-68
2021/09/23 04:05:21;;;;;;;4.05;3.17;;;20.60;99.90;;;;;;4993400;28;20429;-69
2021/09/23 04:07:46;;;;;;;3.67;2.92;;;20.60;99.90;;;;;;4993247;28;20026;-69
2021/09/23 04:10:12;;;;;;;3.80;2.92;;;20.60;99.90;;;;;;4993364;28;20034;-69
2021/09/23 04:12:38;;;;;;;4.10;3.08;;;20.60;99.90;;;;;;5005089;28;20069;-68
2021/09/23 04:15:05;;;;;;;4.07;2.92;;;20.60;99.90;;;;;;4995359;28;20033;-69
2021/09/23 04:17:31;;;;;;;4.30;2.58;;;20.50;99.90;;;;;;5012654;28;20026;-68
2021/09/23 04:19:56;;;;;;;3.60;3.10;;;20.50;99.90;;;;;;5013153;28;20109;-68
2021/09/23 04:22:22;;;;;;;3.63;2.80;;;20.50;99.90;;;;;;5013101;28;20092;-68
2021/09/23 04:24:48;;;;;;;3.88;3.17;;;20.50;99.90;;;;;;5012488;28;20026;-69
2021/09/23 04:27:13;;;;;;;3.63;3.00;;;20.50;99.90;;;;;;5012715;28;20045;-68
2021/09/23 04:29:43;;;;;;;3.58;2.67;;;20.50;99.90;;;;;;5012382;28;20028;-69
2021/09/23 04:32:12;;;;;;;3.08;2.63;;;20.50;99.90;;;;;;4994935;28;20978;-69
2021/09/23 04:34:38;;;;;;;3.25;2.95;;;20.50;99.90;;;;;;5012476;28;20534;-69
2021/09/23 04:37:04;;;;;;;4.75;2.90;;;20.50;99.90;;;;;;5012490;28;20036;-69
2021/09/23 04:39:29;;;;;;;3.50;2.78;;;20.40;99.90;;;;;;5010390;28;20018;-69
2021/09/23 04:41:55;;;;;;;3.10;2.42;;;20.40;99.90;;;;;;4993054;28;20402;-69
2021/09/23 04:44:21;;;;;;;3.10;2.60;;;20.40;99.90;;;;;;4992768;28;20077;-69
2021/09/23 04:46:46;;;;;;;3.53;2.80;;;20.50;99.90;;;;;;4992565;28;20038;-69
2021/09/23 04:49:12;;;;;;;3.00;2.60;;;20.40;99.90;;;;;;4992550;28;20496;-69
2021/09/23 04:51:38;;;;;;;3.72;2.85;;;20.40;99.90;;;;;;4992436;28;20065;-69
2021/09/23 04:54:05;;;;;;;3.35;2.70;;;20.40;99.90;;;;;;4992714;28;20030;-70
2021/09/23 04:56:31;;;;;;;3.22;2.67;;;20.40;99.90;;;;;;4992215;28;20034;-69
2021/09/23 04:58:56;;;;;;;3.72;3.25;;;20.40;99.90;;;;;;4975229;28;20084;-69
2021/09/23 05:01:22;;;;;;;4.03;3.00;;;20.40;99.90;;;;;;4993761;28;20035;-69
2021/09/23 05:03:48;;;;;;;3.35;2.85;;;20.40;99.90;;;;;;4992360;28;20497;-69
2021/09/23 05:06:13;;;;;;;2.63;2.28;;;20.30;99.90;;;;;;4992514;28;20473;-69
2021/09/23 05:08:39;;;;;;;3.95;2.65;;;20.30;99.90;;;;;;4997854;28;20053;-69
2021/09/23 05:11:05;;;;;;;3.15;2.50;;;20.30;99.90;;;;;;5011900;28;20034;-69
2021/09/23 05:13:31;;;;;;;3.30;2.67;;;20.30;99.90;;;;;;5011834;28;20037;-69
2021/09/23 05:15:57;;;;;;;3.78;2.78;;;20.30;99.90;;;;;;5011942;28;20025;-69
2021/09/23 05:18:23;;;;;;;4.22;2.95;;;20.30;99.90;;;;;;5012292;28;20018;-69
2021/09/23 05:20:48;;;;;;;4.10;2.70;;;20.30;99.90;;;;;;5011708;28;20468;-69
2021/09/23 05:23:14;;;;;;;3.20;2.90;;;20.30;99.90;;;;;;5011922;28;20066;-69
2021/09/23 05:25:40;;;;;;;3.05;2.75;;;20.30;99.90;;;;;;5011548;28;20030;-70
2021/09/23 05:28:05;;;;;;;2.70;2.38;;;20.30;99.90;;;;;;5011471;28;20022;-70
2021/09/23 05:30:31;;;;;;;4.10;2.80;;;20.20;99.90;;;;;;4997818;28;20493;-70
2021/09/23 05:32:57;;;;;;;3.10;2.80;;;20.30;99.90;;;;;;4992374;28;20463;-70
2021/09/23 05:35:22;;;;;;;3.58;2.75;;;20.20;99.90;;;;;;4992427;28;20034;-70
2021/09/23 05:37:48;;;;;;;3.00;2.58;;;20.20;99.90;;;;;;4992042;28;20022;-71
2021/09/23 05:40:14;;;;;;;3.13;2.72;;;20.20;99.90;;;;;;4992077;28;20026;-71
2021/09/23 05:42:41;;;;;;;3.38;2.80;;;20.20;99.90;;;;;;4996364;28;20026;-70
2021/09/23 05:45:10;;;;;;;5.15;2.78;;;20.20;99.90;;;;;;5007928;28;20030;-71
2021/09/23 05:47:37;;;;;;;8.10;4.90;;;20.20;99.90;;;;;;4995323;28;20027;-70
2021/09/23 05:50:04;;;;;;;6.60;4.70;;;20.10;99.90;;;;;;4991939;28;20030;-70
2021/09/23 05:52:29;;;;;;;7.47;5.90;;;20.10;99.90;;;;;;4991681;28;20030;-70
2021/09/23 05:54:55;;;;;;;9.45;6.97;;;20.10;99.90;;;;;;4992856;28;20043;-69
2021/09/23 05:57:23;;;;;;;8.50;7.00;;;20.10;99.90;;;;;;5002117;28;20041;-71
2021/09/23 05:59:50;;;;;;;10.35;8.07;;;20.00;99.90;;;;;;5006694;28;20117;-72
2021/09/23 06:02:15;;;;;;;11.00;8.57;;;19.90;99.90;;;;;;5002342;28;20018;-70
2021/09/23 06:04:41;;;;;;;11.02;8.10;;;19.90;99.60;;;;;;5000486;28;20038;-71
2021/09/23 06:07:07;;;;;;;11.23;8.38;;;19.80;99.80;;;;;;5011801;28;20022;-70
2021/09/23 06:09:32;;;;;;;12.07;8.95;;;19.80;99.90;;;;;;5011365;28;20462;-71
2021/09/23 06:11:58;;;;;;;13.10;9.20;;;19.70;99.90;;;;;;5012406;28;20383;-70
2021/09/23 06:14:24;;;;;;;13.00;9.25;;;19.70;99.90;;;;;;4995575;28;20483;-70
2021/09/23 06:16:50;;;;;;;11.77;10.07;;;19.70;99.90;;;;;;4995252;28;20105;-71
2021/09/23 06:19:15;;;;;;;15.30;10.32;;;19.70;99.80;;;;;;5002003;28;20030;-70
2021/09/23 06:21:41;;;;;;;13.52;10.75;;;19.70;99.90;;;;;;5013791;28;20102;-70
2021/09/23 06:24:07;;;;;;;13.00;9.93;;;19.60;99.80;;;;;;5007539;28;20026;-69
2021/09/23 06:26:34;;;;;;;14.20;10.57;;;19.50;99.80;;;;;;5006733;28;20026;-70
2021/09/23 06:28:59;;;;;;;13.77;10.95;;;19.60;99.80;;;;;;4995281;28;20100;-70
2021/09/23 06:31:26;;;;;;;14.27;11.38;;;19.50;99.90;;;;;;4999654;28;20503;-70
2021/09/23 06:33:52;;;;;;;16.48;11.23;;;19.50;99.90;;;;;;5005585;28;20031;-70
2021/09/23 06:36:18;;;;;;;14.15;10.43;;;19.50;99.90;;;;;;4997139;28;20069;-70
2021/09/23 06:38:44;;;;;;;16.05;12.52;;;19.40;99.90;;;;;;4994394;28;20157;-70
2021/09/23 06:41:11;;;;;;;17.15;12.52;;;19.40;99.90;;;;;;4993009;28;20534;-69
2021/09/23 06:43:37;;;;;;;18.10;13.00;;;19.30;99.90;;;;;;4993956;28;20050;-69
2021/09/23 06:46:03;;;;;;;19.92;13.23;;;19.30;99.90;;;;;;4994387;28;20022;-70
2021/09/23 06:48:29;;;;;;;15.93;13.20;;;19.30;99.90;;;;;;4993789;28;20031;-70
2021/09/23 06:50:55;;;;;;;28.55;13.90;;;19.30;99.90;;;;;;4994400;28;20042;-70
2021/09/23 06:53:20;;;;;;;18.20;13.57;;;19.20;99.90;;;;;;4994557;28;20364;-70
2021/09/23 06:55:46;;;;;;;16.77;12.20;;;19.20;99.90;;;;;;4997061;28;20034;-69
2021/09/23 06:58:12;;;;;;;13.98;11.10;;;19.20;99.90;;;;;;4994322;28;20030;-68
2021/09/23 07:00:37;;;;;;;17.08;10.75;;;19.20;99.90;;;;;;4994408;28;20053;-69
2021/09/23 07:03:03;;;;;;;15.88;10.18;;;19.30;99.90;;;;;;4994811;28;20386;-67
2021/09/23 07:05:29;;;;;;;14.00;9.05;;;19.30;99.90;;;;;;4992910;28;20022;-67
2021/09/23 07:07:55;;;;;;;11.48;8.63;;;19.30;99.90;;;;;;4994325;28;20030;-68
2021/09/23 07:10:20;;;;;;;11.75;7.95;;;19.20;99.90;;;;;;4993868;28;20031;-68
2021/09/23 07:12:46;;;;;;;10.18;7.60;;;19.30;99.90;;;;;;4993095;28;20216;-67
2021/09/23 07:15:12;;;;;;;9.07;6.75;;;19.20;99.90;;;;;;4994498;28;20121;-69
2021/09/23 07:17:38;;;;;;;8.27;6.75;;;19.20;99.90;;;;;;4994245;28;20031;-68
2021/09/23 07:20:04;;;;;;;9.95;6.20;;;19.30;99.90;;;;;;4994373;28;20045;-68
2021/09/23 07:22:30;;;;;;;10.23;6.82;;;19.30;99.90;;;;;;4994150;28;20034;-67
2021/09/23 07:24:56;;;;;;;10.20;6.57;;;19.20;99.90;;;;;;4994629;28;20029;-67
2021/09/23 07:27:23;;;;;;;9.77;6.43;;;19.20;99.90;;;;;;4977135;28;20022;-67
2021/09/23 07:29:49;;;;;;;8.63;5.70;;;19.20;99.90;;;;;;4993907;28;20022;-68
2021/09/23 07:32:15;;;;;;;7.47;5.53;;;19.20;99.90;;;;;;4994261;28;20026;-68
2021/09/23 07:34:41;;;;;;;6.20;4.78;;;19.20;99.90;;;;;;4993807;28;20046;-68
2021/09/23 07:37:07;;;;;;;6.88;5.15;;;19.30;99.90;;;;;;4994145;28;20479;-67
2021/09/23 07:39:34;;;;;;;8.43;5.05;;;19.30;99.90;;;;;;4993693;28;20033;-67
2021/09/23 07:41:59;;;;;;;6.70;4.97;;;19.30;99.90;;;;;;4994126;28;20026;-67
2021/09/23 07:44:25;;;;;;;6.75;4.80;;;19.20;99.90;;;;;;4994178;28;20429;-70
2021/09/23 07:46:52;;;;;;;4.93;3.90;;;19.30;99.90;;;;;;4993723;28;20034;-67
2021/09/23 07:49:18;;;;;;;7.13;4.68;;;19.20;99.90;;;;;;4993953;28;20543;-68
2021/09/23 07:51:45;;;;;;;6.10;4.20;;;19.30;99.90;;;;;;4993542;28;20130;-68
2021/09/23 07:54:11;;;;;;;5.93;4.53;;;19.30;99.90;;;;;;4993618;28;20026;-68
2021/09/23 07:56:36;;;;;;;6.78;4.68;;;19.30;99.90;;;;;;4993540;28;20117;-69
2021/09/23 07:59:02;;;;;;;6.22;4.50;;;19.30;99.90;;;;;;4993640;28;20175;-68
2021/09/23 08:01:29;;;;;;;6.05;4.40;;;19.30;99.90;;;;;;4993416;28;20117;-68
2021/09/23 08:03:55;;;;;;;6.82;4.25;;;19.30;99.90;;;;;;4993866;28;20108;-69
2021/09/23 08:06:21;;;;;;;8.18;4.47;;;19.30;99.90;;;;;;4993555;28;20014;-69
2021/09/23 08:08:47;;;;;;;5.53;3.88;;;19.30;99.90;;;;;;4993249;28;20030;-69
2021/09/23 08:11:13;;;;;;;7.07;3.90;;;19.30;99.90;;;;;;4993781;28;20030;-69
2021/09/23 08:13:39;;;;;;;6.43;4.10;;;19.30;99.90;;;;;;4993245;28;20018;-68
2021/09/23 08:16:04;;;;;;;6.75;3.92;;;19.30;99.90;;;;;;4993401;28;20042;-69
2021/09/23 08:18:30;;;;;;;5.78;4.03;;;19.30;99.90;;;;;;4993169;28;20030;-68
2021/09/23 08:20:56;;;;;;;5.47;3.88;;;19.30;99.90;;;;;;4993513;28;20045;-69
2021/09/23 08:23:22;;;;;;;6.00;4.00;;;19.30;99.90;;;;;;4993003;28;20030;-68
2021/09/23 08:25:50;;;;;;;6.15;4.28;;;19.40;99.90;;;;;;4992961;28;20025;-69
2021/09/23 08:28:16;;;;;;;5.78;4.15;;;19.40;99.90;;;;;;4993108;28;20030;-68
2021/09/23 08:30:43;;;;;;;4.65;3.90;;;19.30;99.90;;;;;;4992784;28;20034;-69
2021/09/23 08:33:09;;;;;;;5.75;3.65;;;19.40;99.90;;;;;;4992935;28;20030;-68
2021/09/23 08:35:34;;;;;;;5.32;3.75;;;19.40;99.90;;;;;;4992590;28;20093;-69
2021/09/23 08:38:00;;;;;;;4.30;3.55;;;19.30;99.90;;;;;;4992786;28;20023;-69
2021/09/23 08:40:25;;;;;;;5.25;3.72;;;19.40;99.90;;;;;;4975694;28;20108;-68
2021/09/23 08:42:51;;;;;;;6.32;3.50;;;19.40;99.90;;;;;;4992841;28;20134;-68
2021/09/23 08:45:17;;;;;;;4.85;3.50;;;19.40;99.90;;;;;;4992932;28;20023;-66
2021/09/23 08:47:44;;;;;;;4.22;3.50;;;19.40;99.90;;;;;;4992626;28;20025;-68
2021/09/23 08:50:12;;;;;;;4.95;3.58;;;19.40;99.90;;;;;;4992787;28;20045;-67
2021/09/23 08:52:38;;;;;;;4.80;3.58;;;19.40;99.90;;;;;;4992452;28;20026;-67
2021/09/23 08:55:05;;;;;;;4.20;3.28;;;19.40;99.90;;;;;;4992692;28;20026;-68
2021/09/23 08:57:31;;;;;;;5.93;3.40;;;19.50;99.90;;;;;;4992368;28;20041;-67
2021/09/23 08:59:57;;;;;;;4.72;3.53;;;19.50;99.90;;;;;;4992865;28;20018;-67
2021/09/23 09:02:27;;;;;;;3.83;2.90;;;19.50;99.90;;;;;;4993230;28;20074;-67
2021/09/23 09:04:56;;;;;;;4.25;3.30;;;19.50;99.90;;;;;;4992721;28;20033;-67
2021/09/23 09:07:30;;;;;;;4.65;3.72;;;19.50;99.90;;;;;;4992792;28;20026;-67
2021/09/23 09:10:06;;;;;;;3.78;2.90;;;19.50;99.90;;;;;;4992756;28;20038;-67
2021/09/23 09:12:34;;;;;;;5.28;3.15;;;19.50;99.90;;;;;;4992162;28;20088;-67
2021/09/23 09:15:01;;;;;;;3.78;2.70;;;19.60;99.90;;;;;;4992215;28;20549;-67
2021/09/23 09:17:34;;;;;;;3.65;2.95;;;19.60;99.90;;;;;;4992054;28;20398;-68
2021/09/23 09:20:03;;;;;;;3.70;2.90;;;19.60;99.90;;;;;;4992536;28;20030;-67
2021/09/23 09:22:31;;;;;;;4.28;2.70;;;19.60;99.90;;;;;;4992098;28;20105;-67
2021/09/23 09:24:59;;;;;;;4.80;2.85;;;19.70;99.90;;;;;;4992452;28;20030;-68
2021/09/23 09:27:38;;;;;;;4.25;3.22;;;19.70;99.90;;;;;;4992545;28;20566;-67
2021/09/23 09:30:09;;;;;;;5.22;3.25;;;19.70;99.90;;;;;;4992145;28;20041;-68
2021/09/23 09:32:39;;;;;;;3.92;2.97;;;19.70;99.90;;;;;;4991972;28;20505;-67
2021/09/23 09:35:06;;;;;;;2.88;2.45;;;19.70;99.90;;;;;;4991332;28;20037;-68
2021/09/23 09:37:32;;;;;;;3.78;2.72;;;19.70;99.90;;;;;;4992009;28;20073;-68
2021/09/23 09:40:00;;;;;;;4.32;2.97;;;19.80;99.90;;;;;;4992122;28;20030;-68
2021/09/23 09:42:27;;;;;;;3.33;2.60;;;19.80;99.90;;;;;;4992272;28;20018;-67
2021/09/23 09:44:58;;;;;;;4.30;2.75;;;19.80;99.90;;;;;;4992392;28;20026;-68
2021/09/23 09:47:33;;;;;;;3.47;2.60;;;19.90;99.90;;;;;;4992355;28;20046;-69
2021/09/23 09:50:08;;;;;;;2.95;2.58;;;19.90;99.90;;;;;;4991846;28;20486;-67
2021/09/23 09:52:34;;;;;;;3.13;2.30;;;19.90;99.90;;;;;;4991728;28;20218;-69
2021/09/23 09:55:10;;;;;;;3.60;2.60;;;19.90;99.90;;;;;;4991920;28;20113;-68
2021/09/23 09:57:49;;;;;;;3.60;2.38;;;19.90;99.90;;;;;;4991558;28;20041;-68
2021/09/23 10:00:16;;;;;;;3.60;2.60;;;20.00;99.90;;;;;;4974856;28;20026;-67
2021/09/23 10:02:45;;;;;;;4.03;2.38;;;20.00;99.90;;;;;;4991709;28;20030;-69
2021/09/23 10:05:13;;;;;;;3.22;2.30;;;20.00;99.90;;;;;;4991765;28;20502;-69
2021/09/23 10:07:47;;;;;;;2.80;2.50;;;20.10;99.90;;;;;;4991567;28;20045;-68
2021/09/23 10:10:14;;;;;;;2.33;2.05;;;20.00;99.90;;;;;;4991823;28;20164;-69
2021/09/23 10:12:41;;;;;;;3.15;2.28;;;20.10;99.90;;;;;;4991647;28;20038;-69
2021/09/23 10:15:09;;;;;;;2.72;2.10;;;20.10;99.90;;;;;;4991949;28;20113;-68
2021/09/23 10:17:35;;;;;;;2.88;2.22;;;20.10;99.90;;;;;;4974006;28;20552;-69
2021/09/23 10:20:03;;;;;;;3.13;2.10;;;20.20;99.90;;;;;;4974494;28;20030;-69
2021/09/23 10:22:29;;;;;;;3.00;2.08;;;20.20;99.90;;;;;;4991596;28;20033;-68
2021/09/23 10:24:56;;;;;;;2.47;1.92;;;20.20;99.90;;;;;;4991970;28;20030;-67
2021/09/23 10:30:08;;;;;;;3.47;2.25;;;20.30;99.90;;;;;;4991833;28;20057;-67
2021/09/23 10:32:35;;;;;;;2.40;1.95;;;20.30;99.90;;;;;;4973829;28;20026;-67
2021/09/23 10:35:01;;;;;;;2.60;2.00;;;20.30;99.90;;;;;;4991668;28;20061;-68
2021/09/23 10:37:27;;;;;;;3.15;1.90;;;20.30;99.90;;;;;;4991434;28;20482;-67
2021/09/23 10:39:53;;;;;;;2.92;1.77;;;20.30;99.90;;;;;;4991899;28;20025;-67
2021/09/23 10:42:22;;;;;;;2.85;1.75;;;20.40;99.90;;;;;;4991591;28;20030;-69
2021/09/23 10:44:49;;;;;;;2.58;1.55;;;20.40;99.90;;;;;;4991300;28;20429;-68
2021/09/23 10:47:32;;;;;;;2.47;2.03;;;20.40;99.90;;;;;;4976385;28;20108;-68
2021/09/23 10:49:58;;;;;;;2.90;1.80;;;20.50;99.90;;;;;;4995063;28;20030;-68
2021/09/23 10:52:25;;;;;;;2.40;1.77;;;20.50;99.90;;;;;;4995305;28;20026;-67
2021/09/23 10:54:55;;;;;;;2.53;1.70;;;20.50;99.90;;;;;;4994763;28;20470;-67
2021/09/23 10:57:21;;;;;;;2.22;1.65;;;20.50;99.90;;;;;;4994735;28;20040;-68
2021/09/23 10:59:50;;;;;;;2.05;1.70;;;20.60;99.90;;;;;;4994625;28;20018;-69
2021/09/23 11:02:35;;;;;;;2.05;1.70;;;20.60;99.90;;;;;;4994738;28;20061;-69
2021/09/23 11:05:06;;;;;;;2.53;1.65;;;20.60;99.90;;;;;;4994910;28;20080;-69
2021/09/23 11:07:33;;;;;;;1.65;1.38;;;20.60;99.90;;;;;;4994392;28;20109;-69
2021/09/23 11:10:20;;;;;;;2.47;1.55;;;20.60;99.90;;;;;;4994622;28;20019;-68
2021/09/23 11:12:49;;;;;;;2.60;1.55;;;20.70;99.90;;;;;;4994431;28;20089;-69
2021/09/23 11:15:18;;;;;;;2.13;1.70;;;20.70;99.90;;;;;;4994650;28;20037;-67
2021/09/23 11:17:45;;;;;;;1.83;1.65;;;20.70;99.90;;;;;;4994292;28;20553;-67
2021/09/23 11:20:16;;;;;;;3.58;1.80;;;20.70;99.90;;;;;;4994359;28;20081;-67
2021/09/23 11:22:45;;;;;;;2.30;1.80;;;20.70;99.90;;;;;;4994427;28;20022;-69
2021/09/23 11:25:17;;;;;;;3.03;1.80;;;20.80;99.90;;;;;;4994531;28;20038;-69
2021/09/23 11:27:46;;;;;;;2.30;1.48;;;20.80;99.90;;;;;;4994128;28;20030;-68
2021/09/23 11:30:14;;;;;;;3.28;1.63;;;20.80;99.90;;;;;;4994291;28;20054;-68
2021/09/23 11:32:53;;;;;;;2.15;1.50;;;20.90;99.90;;;;;;4994081;28;20034;-68
2021/09/23 11:35:21;;;;;;;1.95;1.42;;;20.90;99.90;;;;;;4994390;28;20395;-68
2021/09/23 11:37:48;;;;;;;2.28;1.67;;;20.90;99.90;;;;;;4993954;28;20026;-69
2021/09/23 11:40:23;;;;;;;1.70;1.30;;;21.00;99.90;;;;;;4994267;28;20386;-69
2021/09/23 11:42:49;;;;;;;2.08;1.40;;;21.00;99.90;;;;;;4993948;28;20425;-68
2021/09/23 11:45:27;;;;;;;2.30;1.70;;;21.00;99.90;;;;;;4993970;28;20161;-69
2021/09/23 11:47:53;;;;;;;1.80;1.50;;;21.00;99.90;;;;;;4994646;28;20050;-68
2021/09/23 11:50:36;;;;;;;1.65;1.42;;;21.00;99.90;;;;;;4993951;28;20521;-68
2021/09/23 11:53:05;;;;;;;2.15;1.50;;;21.10;99.90;;;;;;4993903;28;20022;-69
2021/09/23 11:55:32;;;;;;;1.92;1.30;;;21.10;99.90;;;;;;4993580;28;20021;-69
2021/09/23 11:58:06;;;;;;;1.80;1.27;;;21.10;99.90;;;;;;4993039;28;20081;-69
2021/09/23 12:00:34;;;;;;;2.13;1.20;;;21.20;99.90;;;;;;4993661;28;20030;-69
2021/09/23 12:03:00;;;;;;;1.65;1.13;;;21.20;99.90;;;;;;4993641;28;20029;-68
2021/09/23 12:05:29;;;;;;;1.83;1.33;;;21.20;99.90;;;;;;4994042;28;20027;-67
2021/09/23 12:07:55;;;;;;;1.55;1.20;;;21.20;99.90;;;;;;4994114;28;20030;-68
2021/09/23 12:10:21;;;;;;;2.47;1.50;;;21.30;99.90;;;;;;4993419;28;20026;-68
2021/09/23 12:13:01;;;;;;;2.03;1.48;;;21.30;99.90;;;;;;4993458;28;20038;-67
2021/09/23 12:15:31;;;;;;;1.60;1.13;;;21.40;99.90;;;;;;4993490;28;20033;-68
2021/09/23 12:17:59;;;;;;;1.50;1.10;;;21.40;99.90;;;;;;4993360;28;20556;-67
2021/09/23 12:20:45;;;;;;;1.70;1.20;;;21.40;99.90;;;;;;4993680;28;20240;-67
2021/09/23 12:23:32;;;;;;;1.95;1.20;;;21.40;99.90;;;;;;4993342;28;20026;-68
2021/09/23 12:26:11;;;;;;;2.00;1.50;;;21.50;99.90;;;;;;4993395;28;20105;-68
2021/09/23 12:28:47;;;;;;;1.63;1.23;;;21.50;99.90;;;;;;4992943;28;20096;-68
2021/09/23 12:31:15;;;;;;;2.85;1.08;;;21.50;99.90;;;;;;4975551;28;20398;-69
2021/09/23 12:33:52;;;;;;;1.75;1.13;;;21.60;99.90;;;;;;4992887;28;20025;-69
2021/09/23 12:36:19;;;;;;;1.67;1.30;;;21.60;99.90;;;;;;4992974;28;20548;-69
2021/09/23 12:38:45;;;;;;;2.13;1.30;;;21.60;99.90;;;;;;4992755;28;20027;-69
2021/09/23 12:41:22;;;;;;;1.65;1.20;;;21.60;99.90;;;;;;4992992;28;20052;-70
2021/09/23 12:43:49;;;;;;;1.67;1.17;;;21.70;99.90;;;;;;4992695;28;20014;-68
2021/09/23 12:46:16;;;;;;;2.10;1.23;;;21.70;99.90;;;;;;4992911;28;20041;-67
2021/09/23 12:48:43;;;;;;;1.83;1.10;;;21.70;99.90;;;;;;4992740;28;20038;-68
2021/09/23 12:51:12;;;;;;;2.13;1.40;;;21.70;99.90;;;;;;4992685;28;20030;-68